createdAt,value
2024-01-09T00:00:45.753Z,2.93
2024-01-09T00:03:14.447Z,3.00
2024-01-09T00:05:43.108Z,2.83
2024-01-09T00:08:13.136Z,2.60
2024-01-09T00:10:41.466Z,2.80
2024-01-09T00:13:10.049Z,2.60
2024-01-09T00:15:38.431Z,3.20
2024-01-09T00:18:07.175Z,2.90
2024-01-09T00:20:35.874Z,2.70
2024-01-09T00:23:04.750Z,2.90
2024-01-09T00:25:34.808Z,2.90
2024-01-09T00:28:03.146Z,2.70
2024-01-09T00:30:31.472Z,2.90
2024-01-09T00:33:00.310Z,2.87
2024-01-09T00:35:28.961Z,2.80
2024-01-09T00:37:57.475Z,2.83
2024-01-09T00:40:26.057Z,3.03
2024-01-09T00:42:56.456Z,3.30
2024-01-09T00:45:25.060Z,3.10
2024-01-09T00:47:54.342Z,3.33
2024-01-09T00:50:22.883Z,2.63
2024-01-09T00:52:51.342Z,3.10
2024-01-09T00:55:20.509Z,3.13
2024-01-09T00:57:48.940Z,3.10
2024-01-09T01:00:20.119Z,3.20
2024-01-09T01:02:48.692Z,3.03
2024-01-09T01:05:17.698Z,3.17
2024-01-09T01:07:46.485Z,3.30
2024-01-09T01:10:18.405Z,3.30
2024-01-09T01:12:48.517Z,3.00
2024-01-09T01:15:17.005Z,3.07
2024-01-09T01:17:46.869Z,3.17
2024-01-09T01:20:15.530Z,3.30
2024-01-09T01:22:45.217Z,3.43
2024-01-09T01:25:15.939Z,3.37
2024-01-09T01:27:44.288Z,3.63
2024-01-09T01:30:13.094Z,3.27
2024-01-09T01:32:42.529Z,3.17
2024-01-09T01:35:12.776Z,3.13
2024-01-09T01:37:41.389Z,3.20
2024-01-09T01:40:10.356Z,3.77
2024-01-09T01:42:38.729Z,3.17
2024-01-09T01:45:16.024Z,3.50
2024-01-09T01:47:45.744Z,3.00
2024-01-09T01:50:16.785Z,3.40
2024-01-09T01:52:46.662Z,3.20
2024-01-09T01:55:15.360Z,4.00
2024-01-09T01:57:44.507Z,3.47
2024-01-09T02:00:14.972Z,3.20
2024-01-09T02:02:43.760Z,3.30
2024-01-09T02:05:12.430Z,3.43
2024-01-09T02:07:44.251Z,3.33
2024-01-09T02:10:12.987Z,3.00
2024-01-09T02:12:41.662Z,3.60
2024-01-09T02:15:11.119Z,3.53
2024-01-09T02:17:40.374Z,3.57
2024-01-09T02:20:09.683Z,3.60
2024-01-09T02:22:38.045Z,3.30
2024-01-09T02:25:08.108Z,3.23
2024-01-09T02:27:41.434Z,3.33
2024-01-09T02:30:12.899Z,3.70
2024-01-09T02:32:42.027Z,3.47
2024-01-09T02:35:10.904Z,3.60
2024-01-09T02:37:39.729Z,3.43
2024-01-09T02:40:10.005Z,3.27
2024-01-09T02:42:38.715Z,3.60
2024-01-09T02:45:07.335Z,3.80
2024-01-09T02:47:37.727Z,3.83
2024-01-09T02:50:06.262Z,3.53
2024-01-09T02:52:34.690Z,3.73
2024-01-09T02:55:03.073Z,3.83
2024-01-09T02:57:31.464Z,3.60
2024-01-09T02:59:59.887Z,3.63
2024-01-09T03:02:28.888Z,3.53
2024-01-09T03:04:58.906Z,3.83
2024-01-09T03:07:27.747Z,4.00
2024-01-09T03:09:56.413Z,3.90
2024-01-09T03:12:24.709Z,4.20
2024-01-09T03:14:53.183Z,3.70
2024-01-09T03:17:21.770Z,4.43
2024-01-09T03:19:50.452Z,4.23
2024-01-09T03:22:20.216Z,4.00
2024-01-09T03:24:48.820Z,4.27
2024-01-09T03:27:17.375Z,4.07
2024-01-09T03:29:45.728Z,4.40
2024-01-09T03:32:14.474Z,4.37
2024-01-09T03:34:43.705Z,5.17
2024-01-09T03:37:12.420Z,4.30
2024-01-09T03:39:42.461Z,4.60
2024-01-09T03:42:11.054Z,4.47
2024-01-09T03:44:39.551Z,4.70
2024-01-09T03:47:07.969Z,4.13
2024-01-09T03:49:36.627Z,4.40
2024-01-09T03:52:06.513Z,4.17
2024-01-09T03:54:34.806Z,4.83
2024-01-09T03:57:04.552Z,4.30
2024-01-09T03:59:32.901Z,4.67
2024-01-09T04:02:01.352Z,4.43
2024-01-09T04:04:29.738Z,4.90
2024-01-09T04:06:58.329Z,5.57
2024-01-09T04:09:26.981Z,4.97
2024-01-09T04:11:55.472Z,4.47
2024-01-09T04:14:25.257Z,5.07
2024-01-09T04:16:54.107Z,4.97
2024-01-09T04:19:22.627Z,5.10
2024-01-09T04:21:51.075Z,4.70
2024-01-09T04:24:19.738Z,5.27
2024-01-09T04:26:48.352Z,5.10
2024-01-09T04:29:16.845Z,4.90
2024-01-09T04:31:47.169Z,5.17
2024-01-09T04:34:15.805Z,4.83
2024-01-09T04:36:44.237Z,4.97
2024-01-09T04:39:12.852Z,5.10
2024-01-09T04:41:41.283Z,5.10
2024-01-09T04:44:09.715Z,5.43
2024-01-09T04:46:38.069Z,5.40
2024-01-09T04:49:07.862Z,4.93
2024-01-09T04:51:36.462Z,5.00
2024-01-09T04:54:04.835Z,5.03
2024-01-09T04:56:33.220Z,5.00
2024-01-09T04:59:01.602Z,5.93
2024-01-09T05:01:30.171Z,5.33
2024-01-09T05:03:58.846Z,5.83
2024-01-09T05:06:28.695Z,5.03
2024-01-09T05:08:57.172Z,5.70
2024-01-09T05:11:26.083Z,5.37
2024-01-09T05:13:54.447Z,5.57
2024-01-09T05:16:22.871Z,5.77
2024-01-09T05:18:51.594Z,5.33
2024-01-09T05:21:20.055Z,5.30
2024-01-09T05:23:49.839Z,6.10
2024-01-09T05:26:20.583Z,5.47
2024-01-09T05:28:49.579Z,5.40
2024-01-09T05:31:18.227Z,5.87
2024-01-09T05:33:46.851Z,5.77
2024-01-09T05:36:19.367Z,5.80
2024-01-09T05:38:47.736Z,5.80
2024-01-09T05:41:22.872Z,6.00
2024-01-09T05:43:51.538Z,5.70
2024-01-09T05:46:20.055Z,6.53
2024-01-09T05:48:48.705Z,5.97
2024-01-09T05:51:17.141Z,6.17
2024-01-09T05:53:47.888Z,6.03
2024-01-09T05:56:16.982Z,6.20
2024-01-09T05:58:46.990Z,5.90
2024-01-09T06:01:15.579Z,6.70
2024-01-09T06:03:44.401Z,6.57
2024-01-09T06:06:13.246Z,6.73
2024-01-09T06:08:41.751Z,6.07
2024-01-09T06:11:10.497Z,6.80
2024-01-09T06:13:39.244Z,6.10
2024-01-09T06:16:09.406Z,6.47
2024-01-09T06:18:38.344Z,6.77
2024-01-09T06:21:07.527Z,7.10
2024-01-09T06:23:36.292Z,6.97
2024-01-09T06:29:33.493Z,6.73
2024-01-09T06:32:03.464Z,6.13
2024-01-09T06:34:32.057Z,6.60
2024-01-09T06:37:00.440Z,6.80
2024-01-09T06:39:29.258Z,6.73
2024-01-09T06:41:58.044Z,6.63
2024-01-09T06:44:26.439Z,6.70
2024-01-09T06:46:55.104Z,6.97
2024-01-09T06:49:25.038Z,6.50
2024-01-09T06:51:55.247Z,6.93
2024-01-09T06:54:23.751Z,6.53
2024-01-09T06:56:52.472Z,6.40
2024-01-09T06:59:20.946Z,6.30
2024-01-09T07:01:49.464Z,6.83
2024-01-09T07:04:18.082Z,6.27
2024-01-09T07:06:48.022Z,6.37
2024-01-09T07:09:16.400Z,6.43
2024-01-09T07:11:44.833Z,6.83
2024-01-09T07:14:13.478Z,6.17
2024-01-09T07:16:41.971Z,6.67
2024-01-09T07:19:10.748Z,7.63
2024-01-09T07:21:39.862Z,6.30
2024-01-09T07:24:10.257Z,6.30
2024-01-09T07:26:42.182Z,5.90
2024-01-09T07:29:11.925Z,6.20
2024-01-09T07:31:40.351Z,6.80
2024-01-09T07:34:08.856Z,6.60
2024-01-09T07:36:39.086Z,5.90
2024-01-09T07:39:11.052Z,5.87
2024-01-09T07:41:40.956Z,5.73
2024-01-09T07:44:09.553Z,5.80
2024-01-09T07:46:38.177Z,5.97
2024-01-09T07:49:07.061Z,6.20
2024-01-09T07:51:35.550Z,6.70
2024-01-09T07:54:05.364Z,6.67
2024-01-09T07:56:34.293Z,6.33
2024-01-09T07:59:04.071Z,6.20
2024-01-09T08:01:32.720Z,5.60
2024-01-09T08:04:01.353Z,6.47
2024-01-09T08:06:29.963Z,6.00
2024-01-09T08:08:58.555Z,6.10
2024-01-09T08:11:27.080Z,6.60
2024-01-09T08:13:55.390Z,5.57
2024-01-09T08:16:25.744Z,5.30
2024-01-09T08:18:54.619Z,5.20
2024-01-09T08:21:23.175Z,5.97
2024-01-09T08:23:51.652Z,5.30
2024-01-09T08:26:20.663Z,5.10
2024-01-09T08:28:49.163Z,5.37
2024-01-09T08:31:17.949Z,6.67
2024-01-09T08:33:49.409Z,5.50
2024-01-09T08:36:18.478Z,5.67
2024-01-09T08:38:47.158Z,5.40
2024-01-09T08:41:18.617Z,4.87
2024-01-09T08:43:47.299Z,5.17
2024-01-09T08:46:15.847Z,5.13
2024-01-09T08:48:44.399Z,4.93
2024-01-09T08:51:18.169Z,5.57
2024-01-09T08:53:49.838Z,4.67
2024-01-09T08:56:18.244Z,5.03
2024-01-09T08:58:46.848Z,4.93
2024-01-09T09:01:21.227Z,4.80
2024-01-09T09:03:50.361Z,5.17
2024-01-09T09:06:20.797Z,4.80
2024-01-09T09:08:49.400Z,4.87
2024-01-09T09:11:18.285Z,4.83
2024-01-09T09:13:46.832Z,5.33
2024-01-09T09:16:15.984Z,4.57
2024-01-09T09:18:46.300Z,5.37
2024-01-09T09:21:15.328Z,4.60
2024-01-09T09:23:45.993Z,4.70
2024-01-09T09:26:14.449Z,4.33
2024-01-09T09:28:55.767Z,4.77
2024-01-09T09:31:31.907Z,4.57
2024-01-09T09:34:01.307Z,4.83
2024-01-09T09:36:30.002Z,4.57
2024-01-09T09:38:59.824Z,5.13
2024-01-09T09:41:30.177Z,4.77
2024-01-09T09:43:59.656Z,4.57
2024-01-09T09:46:28.768Z,4.83
2024-01-09T09:48:58.307Z,4.73
2024-01-09T09:51:28.053Z,5.20
2024-01-09T09:53:56.938Z,4.93
2024-01-09T09:56:27.170Z,4.87
2024-01-09T09:58:55.575Z,4.67
2024-01-09T10:01:25.488Z,5.00
2024-01-09T10:03:58.294Z,4.57
2024-01-09T10:06:27.589Z,4.63
2024-01-09T10:08:56.764Z,4.70
2024-01-09T10:11:25.259Z,4.63
2024-01-09T10:13:56.366Z,4.50
2024-01-09T10:16:25.375Z,4.70
2024-01-09T10:18:56.897Z,4.07
2024-01-09T10:21:25.506Z,4.40
2024-01-09T10:23:57.356Z,4.97
2024-01-09T10:26:26.557Z,4.93
2024-01-09T10:28:56.544Z,4.50
2024-01-09T10:31:25.204Z,4.30
2024-01-09T10:33:53.689Z,5.00
2024-01-09T10:36:22.100Z,4.50
2024-01-09T10:38:50.776Z,4.40
2024-01-09T10:41:19.936Z,5.33
2024-01-09T10:43:50.359Z,4.40
2024-01-09T10:46:20.744Z,4.33
2024-01-09T10:48:50.317Z,4.30
2024-01-09T10:51:19.694Z,4.27
2024-01-09T10:53:48.397Z,4.93
2024-01-09T10:56:17.747Z,4.23
2024-01-09T10:58:48.333Z,4.63
2024-01-09T11:01:17.103Z,5.10
2024-01-09T11:03:49.401Z,4.20
2024-01-09T11:06:18.764Z,4.57
2024-01-09T11:08:52.199Z,4.00
2024-01-09T11:11:23.771Z,4.37
2024-01-09T11:13:54.336Z,4.83
2024-01-09T11:16:24.480Z,4.27
2024-01-09T11:18:55.192Z,4.20
2024-01-09T11:21:27.176Z,4.77
2024-01-09T11:23:58.973Z,6.50
2024-01-09T11:26:30.633Z,4.67
2024-01-09T11:29:00.543Z,4.73
2024-01-09T11:31:31.093Z,4.53
2024-01-09T11:34:03.116Z,4.27
2024-01-09T11:36:34.521Z,4.30
2024-01-09T11:39:04.644Z,4.90
2024-01-09T11:41:34.286Z,4.10
2024-01-09T11:44:03.534Z,4.10
2024-01-09T11:46:33.999Z,4.70
2024-01-09T11:49:05.241Z,4.80
2024-01-09T11:51:35.574Z,4.43
2024-01-09T11:54:04.969Z,4.53
2024-01-09T11:56:34.103Z,5.20
2024-01-09T11:59:03.021Z,4.40
2024-01-09T12:01:31.639Z,4.17
2024-01-09T12:04:00.633Z,4.00
2024-01-09T12:06:31.929Z,4.03
2024-01-09T12:09:01.830Z,4.97
2024-01-09T12:11:31.084Z,4.73
2024-01-09T12:14:02.988Z,4.07
2024-01-09T12:16:32.075Z,4.10
2024-01-09T12:19:02.043Z,4.33
2024-01-09T12:21:34.198Z,4.20
2024-01-09T12:24:20.042Z,4.17
2024-01-09T12:26:52.644Z,4.40
2024-01-09T12:29:21.225Z,4.20
2024-01-09T12:31:49.651Z,4.30
2024-01-09T12:34:18.200Z,4.47
2024-01-09T12:36:48.240Z,4.87
2024-01-09T12:39:21.175Z,4.00
2024-01-09T12:41:54.590Z,3.83
2024-01-09T12:44:23.336Z,4.17
2024-01-09T12:46:52.052Z,3.80
2024-01-09T12:49:20.748Z,4.07
2024-01-09T12:51:51.842Z,4.67
2024-01-09T12:54:21.918Z,4.00
2024-01-09T12:56:50.539Z,4.30
2024-01-09T12:59:23.983Z,3.90
2024-01-09T13:01:52.630Z,4.10
2024-01-09T13:04:21.023Z,4.53
2024-01-09T13:06:51.145Z,4.70
2024-01-09T13:09:19.821Z,4.10
2024-01-09T13:11:48.704Z,4.73
2024-01-09T13:14:17.139Z,4.53
2024-01-09T13:16:46.428Z,4.20
2024-01-09T13:19:15.442Z,4.23
2024-01-09T13:24:17.279Z,3.70
2024-01-09T13:26:46.413Z,3.50
2024-01-09T13:30:45.722Z,3.50
2024-01-09T13:32:03.717Z,4.67
2024-01-09T13:34:32.851Z,3.20
2024-01-09T13:37:01.528Z,3.70
2024-01-09T13:39:31.807Z,3.43
2024-01-09T13:42:00.524Z,3.63
2024-01-09T13:44:29.443Z,4.00
2024-01-09T13:47:00.356Z,3.53
2024-01-09T13:49:30.362Z,3.80
2024-01-09T13:52:02.184Z,4.10
2024-01-09T13:54:32.843Z,4.00
2024-01-09T13:57:01.428Z,3.80
2024-01-09T13:59:29.870Z,4.50
2024-01-09T14:01:58.576Z,3.67
2024-01-09T14:04:27.112Z,3.77
2024-01-09T14:06:56.004Z,3.73
2024-01-09T14:09:24.685Z,4.27
2024-01-09T14:11:55.294Z,3.50
2024-01-09T14:14:24.652Z,3.70
2024-01-09T14:16:54.525Z,3.83
2024-01-09T14:19:25.496Z,4.10
2024-01-09T14:21:55.930Z,4.20
2024-01-09T14:24:26.402Z,3.87
2024-01-09T14:27:00.324Z,4.00
2024-01-09T14:29:30.154Z,4.10
2024-01-09T14:32:01.272Z,5.73
2024-01-09T14:34:30.554Z,4.50
2024-01-09T14:37:01.564Z,4.10
2024-01-09T14:39:29.955Z,4.20
2024-01-09T14:41:59.971Z,3.93
2024-01-09T14:44:28.422Z,4.83
2024-01-09T14:47:00.582Z,4.10
2024-01-09T14:49:29.446Z,4.20
2024-01-09T14:51:58.036Z,3.93
2024-01-09T14:54:29.286Z,4.20
2024-01-09T14:56:59.247Z,3.83
2024-01-09T14:59:30.494Z,4.30
2024-01-09T15:01:59.146Z,3.77
2024-01-09T15:04:30.575Z,3.57
2024-01-09T15:07:02.491Z,4.20
2024-01-09T15:09:32.064Z,3.83
2024-01-09T15:12:02.952Z,4.60
2024-01-09T15:14:33.320Z,5.10
2024-01-09T15:17:03.245Z,4.40
2024-01-09T15:19:32.137Z,3.90
2024-01-09T15:22:01.007Z,4.33
2024-01-09T15:24:30.587Z,3.87
2024-01-09T15:26:59.418Z,4.10
2024-01-09T15:29:28.250Z,5.07
2024-01-09T15:31:58.392Z,3.57
2024-01-09T15:34:28.662Z,4.53
2024-01-09T15:36:58.976Z,5.07
2024-01-09T15:39:27.364Z,4.80
2024-01-09T15:41:55.809Z,3.77
2024-01-09T15:44:24.435Z,4.30
2024-01-09T15:46:54.729Z,4.27
2024-01-09T15:49:24.838Z,4.03
2024-01-09T15:51:54.589Z,4.13
2024-01-09T15:54:24.603Z,4.20
2024-01-09T15:56:54.840Z,4.00
2024-01-09T15:59:23.456Z,4.63
2024-01-09T16:01:54.027Z,4.67
2024-01-09T16:04:23.989Z,4.20
2024-01-09T16:06:52.509Z,4.60
2024-01-09T16:09:20.924Z,4.47
2024-01-09T16:11:49.978Z,4.60
2024-01-09T16:14:18.654Z,3.70
2024-01-09T16:16:51.952Z,4.30
2024-01-09T16:19:20.363Z,4.67
2024-01-09T16:22:01.015Z,4.50
2024-01-09T16:24:29.558Z,4.40
2024-01-09T16:26:58.259Z,5.50
2024-01-09T16:29:27.215Z,3.70
2024-01-09T16:31:55.768Z,4.10
2024-01-09T16:34:24.411Z,5.07
2024-01-09T16:36:53.429Z,3.97
2024-01-09T16:39:24.715Z,4.47
2024-01-09T16:41:53.929Z,4.00
2024-01-09T16:44:23.612Z,3.83
2024-01-09T16:46:52.117Z,4.50
2024-01-09T16:49:20.599Z,4.20
2024-01-09T16:51:49.398Z,3.97
2024-01-09T16:54:17.858Z,4.20
2024-01-09T16:56:47.951Z,3.93
2024-01-09T16:59:16.741Z,3.87
2024-01-09T17:01:47.089Z,3.70
2024-01-09T17:04:17.353Z,4.20
2024-01-09T17:06:45.984Z,3.70
2024-01-09T17:09:14.780Z,4.50
2024-01-09T17:11:44.776Z,3.77
2024-01-09T17:14:14.894Z,4.37
2024-01-09T17:16:49.049Z,5.17
2024-01-09T17:19:24.329Z,4.40
2024-01-09T17:21:53.073Z,4.60
2024-01-09T17:24:21.683Z,5.20
2024-01-09T17:26:50.974Z,5.50
2024-01-09T17:29:21.959Z,5.73
2024-01-09T17:31:50.846Z,5.00
2024-01-09T17:34:19.338Z,4.50
2024-01-09T17:36:48.835Z,4.60
2024-01-09T17:39:18.229Z,4.10
2024-01-09T17:41:46.671Z,4.60
2024-01-09T17:44:15.138Z,4.70
2024-01-09T17:46:45.282Z,4.60
2024-01-09T17:49:13.740Z,5.03
2024-01-09T17:51:42.280Z,4.20
2024-01-09T17:54:10.843Z,4.50
2024-01-09T17:56:39.463Z,4.73
2024-01-09T17:59:08.436Z,4.47
2024-01-09T18:01:37.200Z,4.77
2024-01-09T18:04:09.290Z,4.90
2024-01-09T18:06:43.329Z,4.10
2024-01-09T18:09:12.168Z,4.00
2024-01-09T18:11:40.821Z,3.83
2024-01-09T18:14:09.336Z,3.83
2024-01-09T18:16:38.914Z,3.63
2024-01-09T18:19:09.334Z,4.30
2024-01-09T18:21:42.494Z,5.03
2024-01-09T18:24:11.516Z,5.33
2024-01-09T18:26:52.537Z,4.80
2024-01-09T18:29:23.819Z,4.10
2024-01-09T18:31:55.106Z,3.97
2024-01-09T18:34:25.696Z,3.97
2024-01-09T18:36:54.196Z,4.67
2024-01-09T18:39:23.225Z,4.43
2024-01-09T18:41:57.661Z,4.37
2024-01-09T18:44:26.678Z,3.87
2024-01-09T18:46:55.697Z,4.07
2024-01-09T18:49:26.699Z,4.27
2024-01-09T18:51:55.458Z,3.70
2024-01-09T18:54:25.377Z,4.37
2024-01-09T18:56:54.175Z,4.20
2024-01-09T18:59:23.235Z,3.97
2024-01-09T19:01:52.647Z,4.00
2024-01-09T19:04:21.337Z,4.23
2024-01-09T19:06:51.334Z,4.20
2024-01-09T19:09:23.574Z,4.40
2024-01-09T19:11:52.225Z,4.50
2024-01-09T19:14:21.498Z,4.70
2024-01-09T19:16:53.472Z,4.33
2024-01-09T19:19:22.864Z,4.50
2024-01-09T19:21:52.935Z,4.97
2024-01-09T19:24:21.711Z,5.60
2024-01-09T19:26:50.115Z,17.47
2024-01-09T19:29:20.370Z,14.50
2024-01-09T19:31:51.035Z,8.77
2024-01-09T19:34:19.938Z,5.30
2024-01-09T19:36:49.725Z,5.27
2024-01-09T19:39:22.187Z,6.60
2024-01-09T19:41:50.906Z,6.73
2024-01-09T19:44:20.983Z,5.47
2024-01-09T19:46:49.761Z,5.17
2024-01-09T19:49:18.705Z,4.87
2024-01-09T19:51:49.260Z,5.43
2024-01-09T19:54:17.643Z,5.40
2024-01-09T19:56:47.700Z,5.10
2024-01-09T19:59:16.949Z,5.23
2024-01-09T20:01:45.636Z,5.23
2024-01-09T20:04:15.992Z,4.73
2024-01-09T20:06:45.580Z,4.97
2024-01-09T20:09:14.618Z,5.23
2024-01-09T20:11:44.414Z,4.57
2024-01-09T20:14:14.440Z,4.10
2024-01-09T20:16:42.934Z,4.63
2024-01-09T20:19:11.443Z,4.10
2024-01-09T20:21:40.914Z,4.67
2024-01-09T20:24:09.368Z,4.73
2024-01-09T20:26:38.212Z,5.30
2024-01-09T20:29:07.451Z,5.40
2024-01-09T20:31:38.841Z,6.20
2024-01-09T20:34:07.723Z,4.53
2024-01-09T20:36:36.499Z,5.00
2024-01-09T20:39:04.987Z,5.00
2024-01-09T20:41:34.643Z,5.10
2024-01-09T20:44:03.448Z,4.60
2024-01-09T20:46:31.775Z,4.60
2024-01-09T20:49:01.913Z,4.57
2024-01-09T20:51:32.682Z,4.60
2024-01-09T20:54:01.964Z,4.40
2024-01-09T20:56:30.694Z,4.43
2024-01-09T20:58:59.431Z,4.90
2024-01-09T21:01:27.951Z,5.30
2024-01-09T21:03:56.745Z,5.07
2024-01-09T21:06:26.624Z,5.03
2024-01-09T21:08:55.244Z,4.23
2024-01-09T21:11:23.810Z,4.47
2024-01-09T21:13:52.745Z,4.97
2024-01-09T21:16:21.155Z,4.47
2024-01-09T21:18:49.971Z,4.70
2024-01-09T21:21:18.712Z,4.27
2024-01-09T21:23:48.754Z,4.43
2024-01-09T21:26:17.216Z,4.60
2024-01-09T21:28:46.175Z,5.80
2024-01-09T21:31:14.628Z,4.70
2024-01-09T21:33:43.268Z,4.70
2024-01-09T21:36:12.942Z,4.80
2024-01-09T21:38:41.675Z,4.43
2024-01-09T21:41:11.545Z,4.80
2024-01-09T21:43:40.178Z,4.47
2024-01-09T21:46:08.654Z,4.97
2024-01-09T21:48:37.276Z,4.47
2024-01-09T21:51:06.215Z,4.43
2024-01-09T21:53:34.833Z,4.50
2024-01-09T21:56:03.368Z,4.63
2024-01-09T21:58:33.248Z,4.90
2024-01-09T22:01:01.762Z,4.60
2024-01-09T22:03:30.264Z,4.47
2024-01-09T22:05:59.442Z,4.43
2024-01-09T22:08:27.812Z,4.90
2024-01-09T22:10:56.702Z,4.77
2024-01-09T22:13:26.252Z,4.27
2024-01-09T22:15:57.299Z,4.27
2024-01-09T22:18:25.971Z,4.47
2024-01-09T22:20:54.802Z,5.00
2024-01-09T22:23:23.283Z,4.90
2024-01-09T22:25:51.713Z,4.70
2024-01-09T22:28:20.361Z,4.43
2024-01-09T22:30:48.748Z,4.50
2024-01-09T22:33:19.113Z,4.20
2024-01-09T22:35:47.539Z,4.87
2024-01-09T22:38:16.283Z,4.80
2024-01-09T22:40:46.229Z,4.10
2024-01-09T22:43:14.646Z,4.77
2024-01-09T22:45:43.151Z,4.40
2024-01-09T22:48:12.252Z,5.00
2024-01-09T22:50:45.766Z,4.80
2024-01-09T22:53:14.778Z,4.33
2024-01-09T22:55:43.450Z,4.43
2024-01-09T22:58:11.820Z,4.83
2024-01-09T23:00:40.183Z,4.53
2024-01-09T23:03:08.634Z,4.50
2024-01-09T23:05:37.432Z,4.33
2024-01-09T23:08:08.209Z,5.00
2024-01-09T23:10:36.704Z,5.03
2024-01-09T23:13:05.109Z,4.33
2024-01-09T23:15:33.730Z,4.77
2024-01-09T23:18:02.227Z,4.57
2024-01-09T23:20:32.197Z,5.00
2024-01-09T23:23:00.707Z,4.83
2024-01-09T23:25:30.513Z,4.80
2024-01-09T23:27:58.891Z,4.40
2024-01-09T23:30:28.119Z,4.90
2024-01-09T23:32:58.656Z,4.77
2024-01-09T23:35:27.353Z,4.63
2024-01-09T23:37:55.985Z,4.87
2024-01-09T23:40:24.820Z,4.37
2024-01-09T23:42:54.493Z,4.40
2024-01-09T23:45:22.792Z,4.57
2024-01-09T23:47:51.598Z,4.90
2024-01-09T23:50:21.079Z,4.40
2024-01-09T23:52:49.585Z,4.80
2024-01-09T23:55:17.990Z,5.73
2024-01-09T23:57:46.340Z,4.60
